Terminal Aerodrome Forecast
Issued by NWS

Home | Current Version | Previous Version | Text Only | Print | Product List | Glossary On
Versions: 1 2 3 4 5 6 7 8 9 10 11 12 13 14 15 16 17 18
005
FTUS41 KBTV 041720
TAFSLK
TAF
KSLK 041720Z 0418/0518 17009KT P6SM VCSH OVC035
      TEMPO 0418/0421 -SHRA BKN030
     FM042100 VRB03KT P6SM -SHRA BKN030
     FM050800 VRB03KT 6SM BR BKN020
     FM051400 05006KT P6SM OVC050=

USA.gov is the U.S. government's official web portal to all federal, state and local government web resources and services.